createdAt,value
2022-10-18T00:03:31.738Z,5.5
2022-10-18T00:09:51.514Z,5.5
2022-10-18T00:16:14.568Z,5.5
2022-10-18T00:22:34.548Z,5.5
2022-10-18T00:28:57.537Z,5.2
2022-10-18T00:35:17.634Z,5.2
2022-10-18T00:41:40.497Z,5.8
2022-10-18T00:48:00.565Z,5.8
2022-10-18T00:54:23.585Z,3.8
2022-10-18T01:00:43.526Z,3.8
2022-10-18T01:07:06.552Z,6.3
2022-10-18T01:13:26.515Z,6.3
2022-10-18T01:19:49.526Z,4.2
2022-10-18T01:26:09.504Z,4.2
2022-10-18T01:32:32.628Z,9.2
2022-10-18T01:38:52.526Z,9.2
2022-10-18T01:45:15.508Z,4.2
2022-10-18T01:51:35.636Z,4.2
2022-10-18T01:57:58.554Z,5.7
2022-10-18T02:04:18.557Z,5.7
2022-10-18T02:10:41.590Z,4.3
2022-10-18T02:17:01.646Z,4.3
2022-10-18T02:23:24.546Z,5.5
2022-10-18T02:29:44.522Z,5.5
2022-10-18T02:36:07.630Z,6
2022-10-18T02:42:27.555Z,6
2022-10-18T02:48:50.590Z,4.9
2022-10-18T02:55:10.529Z,4.9
2022-10-18T03:01:33.578Z,4.8
2022-10-18T03:07:53.543Z,4.8
2022-10-18T03:14:16.525Z,6.3
2022-10-18T03:20:36.553Z,6.3
2022-10-18T03:44:01.438Z,18.1
2022-10-18T03:50:24.478Z,18.1
2022-10-18T03:56:44.562Z,18.1
2022-10-18T04:03:07.542Z,4.7
2022-10-18T04:09:27.501Z,4.7
2022-10-18T04:15:50.539Z,6.2
2022-10-18T04:22:10.524Z,6.2
2022-10-18T04:28:33.651Z,7.2
2022-10-18T04:34:53.506Z,7.2
2022-10-18T04:41:16.549Z,6.1
2022-10-18T04:47:36.535Z,6.1
2022-10-18T04:53:59.500Z,4.4
2022-10-18T05:00:19.533Z,4.4
2022-10-18T05:06:42.542Z,4.8
2022-10-18T05:13:02.546Z,4.8
2022-10-18T05:19:25.605Z,7.2
2022-10-18T05:25:45.541Z,7.2
2022-10-18T05:32:08.560Z,4.7
2022-10-18T05:38:28.534Z,4.7
2022-10-18T05:44:51.520Z,4
2022-10-18T05:51:11.567Z,4
2022-10-18T05:57:34.747Z,4.3
2022-10-18T06:03:54.590Z,4.3
2022-10-18T06:10:17.505Z,5.4
2022-10-18T06:23:00.622Z,4.9
2022-10-18T06:29:20.530Z,4.9
2022-10-18T06:35:43.723Z,4.5
2022-10-18T06:42:03.554Z,4.5
2022-10-18T06:48:26.576Z,4
2022-10-18T06:54:46.565Z,4
2022-10-18T07:01:09.607Z,3.6
2022-10-18T07:07:29.830Z,3.6
2022-10-18T07:13:52.645Z,5.2
2022-10-18T07:20:12.548Z,5.2
2022-10-18T07:26:35.563Z,3.9
2022-10-18T07:32:55.551Z,3.9
2022-10-18T07:39:18.569Z,3.6
2022-10-18T07:45:38.568Z,3.6
2022-10-18T07:52:01.609Z,6.4
2022-10-18T07:58:21.551Z,6.4
2022-10-18T08:04:44.507Z,6.9
2022-10-18T08:11:05.067Z,6.9
2022-10-18T08:17:27.500Z,6.9
2022-10-18T08:23:47.497Z,6.9
2022-10-18T08:30:10.594Z,5.2
2022-10-18T08:36:30.844Z,5.2
2022-10-18T08:42:53.750Z,9.1
2022-10-18T09:05:24.524Z,10.8
2022-10-18T09:11:44.566Z,10.8
2022-10-18T09:18:07.600Z,7.4
2022-10-18T09:24:27.512Z,7.4
2022-10-18T09:30:50.598Z,4.2
2022-10-18T09:37:10.653Z,4.2
2022-10-18T09:43:33.568Z,6
2022-10-18T09:49:53.654Z,6
2022-10-18T09:56:16.530Z,6.4
2022-10-18T10:02:36.636Z,6.4
2022-10-18T10:08:59.568Z,3
2022-10-18T10:15:19.567Z,3
2022-10-18T10:21:42.595Z,2.3
2022-10-18T10:28:02.503Z,2.3
2022-10-18T10:34:25.561Z,4.4
2022-10-18T10:40:45.574Z,4.4
2022-10-18T10:47:08.546Z,3.5
2022-10-18T10:53:28.553Z,3.5
2022-10-18T10:59:51.544Z,1.9
2022-10-18T11:06:11.506Z,1.9
2022-10-18T11:12:34.870Z,2.3
2022-10-18T11:18:54.555Z,2.3
2022-10-18T11:25:17.582Z,4.3
2022-10-18T11:31:37.495Z,4.3
2022-10-18T11:38:00.623Z,2.7
2022-10-18T11:44:20.801Z,2.7
2022-10-18T11:50:43.888Z,4.9
2022-10-18T11:57:03.610Z,4.9
2022-10-18T12:03:26.500Z,5.5
2022-10-18T12:09:46.522Z,5.5
2022-10-18T12:16:09.542Z,4.5
2022-10-18T12:22:29.827Z,4.5
2022-10-18T12:28:52.652Z,7.4
2022-10-18T12:35:12.536Z,7.4
2022-10-18T12:41:35.535Z,8.9
2022-10-18T12:47:55.535Z,8.9
2022-10-18T12:54:18.592Z,8.4
2022-10-18T13:00:38.533Z,8.4
2022-10-18T13:07:01.551Z,9.4
2022-10-18T13:13:38.541Z,9.4
2022-10-18T13:19:44.599Z,7
2022-10-18T13:26:04.559Z,7
2022-10-18T13:32:27.529Z,9.9
2022-10-18T13:38:47.504Z,9.9
2022-10-18T13:45:10.567Z,10.6
2022-10-18T13:51:30.543Z,10.6
2022-10-18T13:57:53.528Z,8.1
2022-10-18T14:04:13.487Z,8.1
2022-10-18T14:21:18.804Z,6.9
2022-10-18T14:27:20.543Z,6.9
2022-10-18T14:33:43.489Z,20
2022-10-18T14:40:03.587Z,20
2022-10-18T14:46:27.204Z,20
2022-10-18T14:52:46.505Z,20
2022-10-18T14:59:09.553Z,15.8
2022-10-18T15:05:29.494Z,15.8
2022-10-18T15:11:52.564Z,15.3
2022-10-18T15:18:12.510Z,15.3
2022-10-18T15:24:35.532Z,18.2
2022-10-18T15:30:55.543Z,18.2
2022-10-18T15:37:18.513Z,13.3
2022-10-18T15:43:38.557Z,13.3
2022-10-18T15:50:01.486Z,11.5
2022-10-18T15:56:21.584Z,11.5
2022-10-18T16:02:44.517Z,12.8
2022-10-18T16:09:04.482Z,12.8
2022-10-18T16:15:27.564Z,7.6
2022-10-18T16:21:47.974Z,7.6
2022-10-18T16:28:10.589Z,9.3
2022-10-18T16:34:30.580Z,9.3
2022-10-18T16:40:53.576Z,8.2
2022-10-18T16:47:13.575Z,8.2
2022-10-18T16:53:36.655Z,9.2
2022-10-18T16:59:56.715Z,9.2
2022-10-18T17:06:19.605Z,6.4
2022-10-18T17:12:39.609Z,6.4
2022-10-18T17:19:02.616Z,6.8
2022-10-18T17:25:22.494Z,6.8
2022-10-18T17:31:45.533Z,7.1
2022-10-18T17:38:05.621Z,7.1
2022-10-18T17:44:28.616Z,5.4
2022-10-18T17:50:48.693Z,5.4
2022-10-18T17:57:11.502Z,9.6
2022-10-18T18:03:31.717Z,9.6
2022-10-18T18:09:54.513Z,5.2
2022-10-18T18:16:14.514Z,5.2
2022-10-18T18:22:39.075Z,6.3
2022-10-18T18:28:57.608Z,6.3
2022-10-18T18:35:20.559Z,5.4
2022-10-18T18:41:40.564Z,5.4
2022-10-18T18:48:03.733Z,6.5
2022-10-18T18:54:23.592Z,6.5
2022-10-18T19:00:46.578Z,7.3
2022-10-18T19:07:06.754Z,7.3
2022-10-18T19:13:29.585Z,5
2022-10-18T19:35:59.521Z,4.8
2022-10-18T19:42:22.654Z,4.8
2022-10-18T19:48:42.594Z,8.2
2022-10-18T19:55:02.549Z,8.2
2022-10-18T20:01:25.568Z,6.9
2022-10-18T20:07:45.594Z,6.9
2022-10-18T20:14:08.596Z,9.5
2022-10-18T20:20:28.584Z,9.5
2022-10-18T20:33:11.619Z,5.9
2022-10-18T20:39:34.984Z,9
2022-10-18T20:45:54.527Z,9
2022-10-18T20:52:17.622Z,3.7
2022-10-18T20:58:37.553Z,3.7
2022-10-18T21:05:00.662Z,7.4
2022-10-18T21:11:20.634Z,7.4
2022-10-18T21:17:43.535Z,6.3
2022-10-18T21:24:05.326Z,6.3
2022-10-18T21:30:26.555Z,6.6
2022-10-18T21:36:46.539Z,6.6
2022-10-18T21:43:09.573Z,8.4
2022-10-18T21:49:29.522Z,8.4
2022-10-18T21:55:52.594Z,5.8
2022-10-18T22:02:12.569Z,5.8
2022-10-18T22:25:09.532Z,16.6
2022-10-18T22:31:29.459Z,16.6
2022-10-18T22:37:52.534Z,16.6
2022-10-18T22:44:12.558Z,16.6
2022-10-18T22:50:35.579Z,5.1
2022-10-18T22:56:55.630Z,5.1
2022-10-18T23:03:18.672Z,4
2022-10-18T23:09:38.514Z,4
2022-10-18T23:16:04.146Z,3.6
2022-10-18T23:22:21.550Z,3.6
2022-10-18T23:28:44.603Z,4.3
2022-10-18T23:35:04.630Z,4.3
2022-10-18T23:41:27.587Z,4
2022-10-18T23:47:47.745Z,4
2022-10-18T23:54:10.590Z,6.1
